createdAt,value
2023-04-03T00:00:51.960Z,82.28
2023-04-03T00:01:52.015Z,82.56
2023-04-03T00:02:52.044Z,82.75
2023-04-03T00:03:52.027Z,82.37
2023-04-03T00:04:52.037Z,82.47
2023-04-03T00:05:52.063Z,82.56
2023-04-03T00:06:52.070Z,83.13
2023-04-03T00:07:52.090Z,82.94
2023-04-03T00:08:52.103Z,82.75
2023-04-03T00:09:52.123Z,82.66
2023-04-03T00:10:52.142Z,82.75
2023-04-03T00:11:52.175Z,82.94
2023-04-03T00:12:52.176Z,83.32
2023-04-03T00:13:52.198Z,83.42
2023-04-03T00:14:52.224Z,83.32
2023-04-03T00:15:52.229Z,83.13
2023-04-03T00:16:52.326Z,84.08
2023-04-03T00:17:52.291Z,83.80
2023-04-03T00:18:52.283Z,83.51
2023-04-03T00:19:52.301Z,83.98
2023-04-03T00:20:52.322Z,83.89
2023-04-03T00:21:52.338Z,83.70
2023-04-03T00:22:52.358Z,84.17
2023-04-03T00:23:52.376Z,83.98
2023-04-03T00:24:52.390Z,83.98
2023-04-03T00:25:52.408Z,83.70
2023-04-03T00:26:52.449Z,84.17
2023-04-03T00:27:52.447Z,83.98
2023-04-03T00:28:52.462Z,83.89
2023-04-03T00:29:52.478Z,83.51
2023-04-03T00:30:52.506Z,83.70
2023-04-03T00:31:52.531Z,83.70
2023-04-03T00:32:52.568Z,83.61
2023-04-03T00:33:52.549Z,83.32
2023-04-03T00:34:52.570Z,83.61
2023-04-03T00:35:52.643Z,83.61
2023-04-03T00:36:52.714Z,84.08
2023-04-03T00:37:52.621Z,84.17
2023-04-03T00:38:52.639Z,84.23
2023-04-03T00:39:52.656Z,83.94
2023-04-03T00:40:52.668Z,84.74
2023-04-03T00:41:52.690Z,84.74
2023-04-03T00:42:52.713Z,84.55
2023-04-03T00:43:52.728Z,84.51
2023-04-03T00:44:52.747Z,84.23
2023-04-03T00:45:52.789Z,84.42
2023-04-03T00:46:52.789Z,84.99
2023-04-03T00:47:52.812Z,84.99
2023-04-03T00:48:52.813Z,84.51
2023-04-03T00:49:52.828Z,84.61
2023-04-03T00:50:52.850Z,84.61
2023-04-03T00:51:52.884Z,84.80
2023-04-03T00:52:52.882Z,84.80
2023-04-03T00:53:52.908Z,84.89
2023-04-03T00:54:52.915Z,84.42
2023-04-03T00:55:52.934Z,84.99
2023-04-03T00:56:52.981Z,85.08
2023-04-03T00:57:52.978Z,85.27
2023-04-03T00:58:52.989Z,85.74
2023-04-03T00:59:53.004Z,86.03
2023-04-03T01:00:53.020Z,86.03
2023-04-03T01:01:53.068Z,85.74
2023-04-03T01:02:53.099Z,85.74
2023-04-03T01:03:53.170Z,86.03
2023-04-03T01:04:53.097Z,86.03
2023-04-03T01:05:53.110Z,86.12
2023-04-03T01:06:53.128Z,86.12
2023-04-03T01:07:53.290Z,86.41
2023-04-03T01:08:53.165Z,86.03
2023-04-03T01:09:53.189Z,86.12
2023-04-03T01:10:53.218Z,86.22
2023-04-03T01:11:53.224Z,86.41
2023-04-03T01:12:53.256Z,86.31
2023-04-03T01:13:53.251Z,86.22
2023-04-03T01:14:53.269Z,86.31
2023-04-03T01:15:53.307Z,86.31
2023-04-03T01:16:53.307Z,86.03
2023-04-03T01:17:53.387Z,86.22
2023-04-03T01:18:53.345Z,86.31
2023-04-03T01:19:53.357Z,86.60
2023-04-03T01:20:53.420Z,86.31
2023-04-03T01:21:53.390Z,86.41
2023-04-03T01:22:53.409Z,86.50
2023-04-03T01:23:53.424Z,86.41
2023-04-03T01:24:53.446Z,86.31
2023-04-03T01:25:53.463Z,86.50
2023-04-03T01:26:53.470Z,86.50
2023-04-03T01:27:53.494Z,86.60
2023-04-03T01:28:53.508Z,86.60
2023-04-03T01:29:53.539Z,86.60
2023-04-03T01:30:53.546Z,86.41
2023-04-03T01:31:53.666Z,86.41
2023-04-03T01:32:53.611Z,86.46
2023-04-03T01:33:53.597Z,86.50
2023-04-03T01:34:53.635Z,86.55
2023-04-03T01:35:53.648Z,86.74
2023-04-03T01:36:53.650Z,86.74
2023-04-03T01:37:53.668Z,87.40
2023-04-03T01:38:53.684Z,87.31
2023-04-03T01:39:53.702Z,87.21
2023-04-03T01:40:53.722Z,87.21
2023-04-03T01:41:53.755Z,87.12
2023-04-03T01:42:53.752Z,87.40
2023-04-03T01:43:53.769Z,87.31
2023-04-03T01:44:53.797Z,87.31
2023-04-03T01:45:53.849Z,87.31
2023-04-03T01:46:53.826Z,87.40
2023-04-03T01:47:53.898Z,87.31
2023-04-03T01:48:53.875Z,87.50
2023-04-03T01:49:53.871Z,87.31
2023-04-03T01:50:53.890Z,87.21
2023-04-03T01:51:53.907Z,87.59
2023-04-03T01:52:53.925Z,87.21
2023-04-03T01:53:53.940Z,87.59
2023-04-03T01:54:53.953Z,87.40
2023-04-03T01:55:53.975Z,87.50
2023-04-03T01:56:54.037Z,87.40
2023-04-03T01:57:54.026Z,87.31
2023-04-03T01:58:54.027Z,87.31
2023-04-03T01:59:54.038Z,87.21
2023-04-03T02:00:54.068Z,87.40
2023-04-03T02:01:54.074Z,87.98
2023-04-03T02:02:54.131Z,88.26
2023-04-03T02:03:54.166Z,88.07
2023-04-03T02:04:54.132Z,87.69
2023-04-03T02:05:54.147Z,87.98
2023-04-03T02:06:54.171Z,88.07
2023-04-03T02:07:54.179Z,87.50
2023-04-03T02:08:54.196Z,87.78
2023-04-03T02:09:54.213Z,87.88
2023-04-03T02:10:54.236Z,88.07
2023-04-03T02:11:54.245Z,88.45
2023-04-03T02:12:54.258Z,88.26
2023-04-03T02:13:54.276Z,88.45
2023-04-03T02:14:54.294Z,88.26
2023-04-03T02:15:54.311Z,88.07
2023-04-03T02:16:54.393Z,87.88
2023-04-03T02:17:54.358Z,88.07
2023-04-03T02:18:54.360Z,87.88
2023-04-03T02:19:54.378Z,87.78
2023-04-03T02:20:54.395Z,87.88
2023-04-03T02:21:54.414Z,88.17
2023-04-03T02:22:54.431Z,88.45
2023-04-03T02:23:54.441Z,88.45
2023-04-03T02:24:54.458Z,88.35
2023-04-03T02:25:54.477Z,88.26
2023-04-03T02:26:54.494Z,88.45
2023-04-03T02:27:54.512Z,88.45
2023-04-03T02:28:54.524Z,88.35
2023-04-03T02:29:54.548Z,88.35
2023-04-03T02:30:54.570Z,88.54
2023-04-03T02:31:54.582Z,88.45
2023-04-03T02:32:54.649Z,88.35
2023-04-03T02:33:54.609Z,88.26
2023-04-03T02:34:54.636Z,88.45
2023-04-03T02:35:54.659Z,88.26
2023-04-03T02:36:54.658Z,88.45
2023-04-03T02:37:54.680Z,88.45
2023-04-03T02:38:54.690Z,88.45
2023-04-03T02:39:54.708Z,87.88
2023-04-03T02:40:54.725Z,88.35
2023-04-03T02:41:54.740Z,87.88
2023-04-03T02:42:54.752Z,87.88
2023-04-03T02:43:54.774Z,88.07
2023-04-03T02:44:54.792Z,87.88
2023-04-03T02:45:54.886Z,87.88
2023-04-03T02:46:54.831Z,88.07
2023-04-03T02:47:54.923Z,87.88
2023-04-03T02:48:54.860Z,87.88
2023-04-03T02:49:54.884Z,87.88
2023-04-03T02:50:54.891Z,87.98
2023-04-03T02:51:54.908Z,87.88
2023-04-03T02:52:54.925Z,88.35
2023-04-03T02:53:54.947Z,88.07
2023-04-03T02:54:54.970Z,88.35
2023-04-03T02:55:54.982Z,88.17
2023-04-03T02:56:55.039Z,88.54
2023-04-03T02:57:55.021Z,88.49
2023-04-03T02:58:55.044Z,88.45
2023-04-03T02:59:55.044Z,88.17
2023-04-03T03:00:55.069Z,88.49
2023-04-03T03:01:55.132Z,88.35
2023-04-03T03:02:55.163Z,88.40
2023-04-03T03:03:55.112Z,88.49
2023-04-03T03:04:55.190Z,88.49
2023-04-03T03:05:55.149Z,88.31
2023-04-03T03:06:55.162Z,88.40
2023-04-03T03:07:55.185Z,88.49
2023-04-03T03:08:55.212Z,88.31
2023-04-03T03:09:55.213Z,88.31
2023-04-03T03:10:55.238Z,88.31
2023-04-03T03:11:55.263Z,88.02
2023-04-03T03:12:55.259Z,88.12
2023-04-03T03:13:55.280Z,88.40
2023-04-03T03:14:55.295Z,88.40
2023-04-03T03:15:55.347Z,89.06
2023-04-03T03:16:55.329Z,88.68
2023-04-03T03:17:55.367Z,88.49
2023-04-03T03:18:56.687Z,89.16
2023-04-03T03:19:55.375Z,89.35
2023-04-03T03:20:55.392Z,89.54
2023-04-03T03:21:55.410Z,89.54
2023-04-03T03:22:55.428Z,89.16
2023-04-03T03:23:55.450Z,89.25
2023-04-03T03:24:55.458Z,90.11
2023-04-03T03:25:55.483Z,89.92
2023-04-03T03:26:55.491Z,89.82
2023-04-03T03:27:55.510Z,89.82
2023-04-03T03:28:55.558Z,89.82
2023-04-03T03:29:55.548Z,89.73
2023-04-03T03:30:55.559Z,89.82
2023-04-03T03:31:55.624Z,89.73
2023-04-03T03:32:55.657Z,89.92
2023-04-03T03:33:55.607Z,90.30
2023-04-03T03:34:55.625Z,90.30
2023-04-03T03:35:55.694Z,90.30
2023-04-03T03:36:55.656Z,90.11
2023-04-03T03:37:55.677Z,90.06
2023-04-03T03:38:55.688Z,89.92
2023-04-03T03:39:55.706Z,89.92
2023-04-03T03:40:55.721Z,90.86
2023-04-03T03:41:55.769Z,90.58
2023-04-03T03:42:55.753Z,91.05
2023-04-03T03:43:55.777Z,91.05
2023-04-03T03:44:55.786Z,91.20
2023-04-03T03:45:55.801Z,91.48
2023-04-03T03:46:55.861Z,91.10
2023-04-03T03:47:55.879Z,91.53
2023-04-03T03:48:55.852Z,91.24
2023-04-03T03:49:55.878Z,91.81
2023-04-03T03:50:55.896Z,92.00
2023-04-03T03:51:55.898Z,91.72
2023-04-03T03:52:55.918Z,91.67
2023-04-03T03:53:55.931Z,91.34
2023-04-03T03:54:55.960Z,91.43
2023-04-03T03:55:55.964Z,91.34
2023-04-03T03:56:55.997Z,91.67
2023-04-03T03:57:55.998Z,91.43
2023-04-03T03:58:56.015Z,91.43
2023-04-03T03:59:56.030Z,91.62
2023-04-03T04:00:56.048Z,91.62
2023-04-03T04:01:56.083Z,91.48
2023-04-03T04:02:58.596Z,92.29
2023-04-03T04:03:56.139Z,92.33
2023-04-03T04:04:56.117Z,91.86
2023-04-03T04:05:56.246Z,91.96
2023-04-03T04:06:56.151Z,91.96
2023-04-03T04:07:56.159Z,92.33
2023-04-03T04:08:56.176Z,92.24
2023-04-03T04:09:56.193Z,92.52
2023-04-03T04:10:56.209Z,92.61
2023-04-03T04:11:56.227Z,92.33
2023-04-03T04:12:58.063Z,92.24
2023-04-03T04:13:56.263Z,92.71
2023-04-03T04:14:56.290Z,92.71
2023-04-03T04:15:56.287Z,93.09
2023-04-03T04:16:56.343Z,93.28
2023-04-03T04:17:56.358Z,93.09
2023-04-03T04:18:56.340Z,93.18
2023-04-03T04:19:56.353Z,93.09
2023-04-03T04:20:56.386Z,93.66
2023-04-03T04:21:56.382Z,93.47
2023-04-03T04:22:56.400Z,94.23
2023-04-03T04:23:56.414Z,93.75
2023-04-03T04:24:56.430Z,94.13
2023-04-03T04:25:56.446Z,94.32
2023-04-03T04:26:56.462Z,94.23
2023-04-03T04:27:56.481Z,93.94
2023-04-03T04:28:56.490Z,94.04
2023-04-03T04:29:58.791Z,94.89
2023-04-03T04:30:56.543Z,94.32
2023-04-03T04:31:56.542Z,94.89
2023-04-03T04:32:56.655Z,94.79
2023-04-03T04:33:56.575Z,95.26
2023-04-03T04:34:56.666Z,95.45
2023-04-03T04:35:56.692Z,95.36
2023-04-03T04:36:56.680Z,95.36
2023-04-03T04:37:56.632Z,95.45
2023-04-03T04:38:56.648Z,95.45
2023-04-03T04:39:56.660Z,96.31
2023-04-03T04:40:56.680Z,95.93
2023-04-03T04:41:56.694Z,95.74
2023-04-03T04:42:56.714Z,96.02
2023-04-03T04:43:56.725Z,95.83
2023-04-03T04:44:56.740Z,95.83
2023-04-03T04:45:56.769Z,96.21
2023-04-03T04:46:56.772Z,95.93
2023-04-03T04:47:56.799Z,96.12
2023-04-03T04:48:56.802Z,95.93
2023-04-03T04:49:56.822Z,95.93
2023-04-03T04:50:56.833Z,95.93
2023-04-03T04:51:56.852Z,95.93
2023-04-03T04:52:56.891Z,96.02
2023-04-03T04:53:56.885Z,96.40
2023-04-03T04:54:56.902Z,96.21
2023-04-03T04:55:56.925Z,96.40
2023-04-03T04:56:56.978Z,96.50
2023-04-03T04:57:56.943Z,96.21
2023-04-03T04:58:56.958Z,96.21
2023-04-03T04:59:56.978Z,96.12
2023-04-03T05:00:56.993Z,95.93
2023-04-03T05:01:57.028Z,95.74
2023-04-03T05:02:57.061Z,95.74
2023-04-03T05:03:57.039Z,95.64
2023-04-03T05:04:57.092Z,95.64
2023-04-03T05:05:57.068Z,95.93
2023-04-03T05:06:57.087Z,95.83
2023-04-03T05:07:57.100Z,95.83
2023-04-03T05:08:57.126Z,95.93
2023-04-03T05:09:57.132Z,95.93
2023-04-03T05:10:57.151Z,95.93
2023-04-03T05:11:57.174Z,95.74
2023-04-03T05:12:57.179Z,95.64
2023-04-03T05:13:57.198Z,95.93
2023-04-03T05:14:57.215Z,95.93
2023-04-03T05:15:57.257Z,95.83
2023-04-03T05:16:57.242Z,95.93
2023-04-03T05:17:57.307Z,95.74
2023-04-03T05:18:57.274Z,96.12
2023-04-03T05:19:57.289Z,95.83
2023-04-03T05:20:57.306Z,95.83
2023-04-03T05:21:57.324Z,95.83
2023-04-03T05:22:57.331Z,95.83
2023-04-03T05:23:57.355Z,95.74
2023-04-03T05:24:57.372Z,95.83
2023-04-03T05:25:57.383Z,95.93
2023-04-03T05:26:57.401Z,95.74
2023-04-03T05:27:57.416Z,95.93
2023-04-03T05:28:57.430Z,95.55
2023-04-03T05:29:57.452Z,95.45
2023-04-03T05:30:57.463Z,95.45
2023-04-03T05:31:57.544Z,95.45
2023-04-03T05:32:57.521Z,95.55
2023-04-03T05:33:57.510Z,95.45
2023-04-03T05:35:00.013Z,95.36
2023-04-03T05:35:57.580Z,95.45
2023-04-03T05:36:57.554Z,95.36
2023-04-03T05:37:57.573Z,95.36
2023-04-03T05:38:57.587Z,95.26
2023-04-03T05:39:57.597Z,95.45
2023-04-03T05:40:57.622Z,95.26
2023-04-03T05:41:57.629Z,95.26
2023-04-03T05:42:57.658Z,95.45
2023-04-03T05:43:57.661Z,95.64
2023-04-03T05:44:57.682Z,95.45
2023-04-03T05:45:57.757Z,95.26
2023-04-03T05:46:57.716Z,95.45
2023-04-03T05:47:57.796Z,95.36
2023-04-03T05:48:57.743Z,95.36
2023-04-03T05:49:57.755Z,94.98
2023-04-03T05:50:57.771Z,95.26
2023-04-03T05:51:57.788Z,95.36
2023-04-03T05:52:57.805Z,95.45
2023-04-03T05:53:57.820Z,95.97
2023-04-03T05:54:57.841Z,95.40
2023-04-03T05:55:57.855Z,95.59
2023-04-03T05:56:57.908Z,93.99
2023-04-03T05:57:57.893Z,93.42
2023-04-03T05:58:57.901Z,93.56
2023-04-03T05:59:57.914Z,92.05
2023-04-03T06:00:57.934Z,91.67
2023-04-03T06:01:57.962Z,91.00
2023-04-03T06:02:58.063Z,90.91
2023-04-03T06:03:58.154Z,90.15
2023-04-03T06:04:58.047Z,89.20
2023-04-03T06:05:58.015Z,89.01
2023-04-03T06:06:58.076Z,88.78
2023-04-03T06:07:58.052Z,88.68
2023-04-03T06:08:58.087Z,88.40
2023-04-03T06:09:58.090Z,87.64
2023-04-03T06:10:58.104Z,85.84
2023-04-03T06:11:58.115Z,84.99
2023-04-03T06:12:58.142Z,85.03
2023-04-03T06:13:58.149Z,85.13
2023-04-03T06:14:58.169Z,84.65
2023-04-03T06:15:58.218Z,84.31
2023-04-03T06:16:58.320Z,83.65
2023-04-03T06:17:58.248Z,82.60
2023-04-03T06:18:58.239Z,81.94
2023-04-03T06:19:58.258Z,81.37
2023-04-03T06:20:58.276Z,80.62
2023-04-03T06:21:58.294Z,80.33
2023-04-03T06:22:58.308Z,79.66
2023-04-03T06:23:58.326Z,79.28
2023-04-03T06:24:58.347Z,78.53
2023-04-03T06:25:58.365Z,78.72
2023-04-03T06:26:58.397Z,78.62
2023-04-03T06:27:58.402Z,78.72
2023-04-03T06:28:58.429Z,78.38
2023-04-03T06:29:58.444Z,78.56
2023-04-03T06:30:58.499Z,78.09
2023-04-03T06:31:58.478Z,77.62
2023-04-03T06:32:58.505Z,77.62
2023-04-03T06:33:58.521Z,78.00
2023-04-03T06:34:58.536Z,78.09
2023-04-03T06:35:58.561Z,77.24
2023-04-03T06:36:58.571Z,76.95
2023-04-03T06:37:58.608Z,77.24
2023-04-03T06:38:58.612Z,77.14
2023-04-03T06:39:58.628Z,77.14
2023-04-03T06:40:58.646Z,77.81
2023-04-03T06:41:58.666Z,77.43
2023-04-03T06:42:58.690Z,77.33
2023-04-03T06:43:58.705Z,76.82
2023-04-03T06:44:58.723Z,76.82
2023-04-03T06:45:58.761Z,76.92
2023-04-03T06:46:58.782Z,77.11
2023-04-03T06:47:58.829Z,77.58
2023-04-03T06:48:58.800Z,78.11
2023-04-03T06:49:58.914Z,78.58
2023-04-03T06:50:58.841Z,79.15
2023-04-03T06:52:00.335Z,79.82
2023-04-03T06:52:58.880Z,80.53
2023-04-03T06:53:58.900Z,81.57
2023-04-03T06:54:58.917Z,82.24
2023-04-03T06:55:58.932Z,82.33
2023-04-03T06:56:59.048Z,82.81
2023-04-03T06:57:58.974Z,82.62
2023-04-03T06:58:59.004Z,82.52
2023-04-03T06:59:59.006Z,82.24
2023-04-03T07:00:59.046Z,82.90
2023-04-03T07:01:59.067Z,81.86
2023-04-03T07:02:59.120Z,81.67
2023-04-03T07:03:59.167Z,82.62
2023-04-03T07:04:59.125Z,82.62
2023-04-03T07:05:59.117Z,82.71
2023-04-03T07:06:59.133Z,82.52
2023-04-03T07:07:59.150Z,82.14
2023-04-03T07:08:59.169Z,82.62
2023-04-03T07:09:59.187Z,82.43
2023-04-03T07:10:59.200Z,82.71
2023-04-03T07:11:59.221Z,82.90
2023-04-03T07:12:59.247Z,83.00
2023-04-03T07:13:59.259Z,83.75
2023-04-03T07:14:59.274Z,84.04
2023-04-03T07:15:59.338Z,83.37
2023-04-03T07:16:59.313Z,83.09
2023-04-03T07:17:59.494Z,83.00
2023-04-03T07:18:59.343Z,83.18
2023-04-03T07:19:59.361Z,82.90
2023-04-03T07:20:59.387Z,82.90
2023-04-03T07:21:59.394Z,83.28
2023-04-03T07:22:59.841Z,83.28
2023-04-03T07:23:59.429Z,83.28
2023-04-03T07:24:59.446Z,82.43
2023-04-03T07:25:59.464Z,82.33
2023-04-03T07:26:59.482Z,81.86
2023-04-03T07:27:59.493Z,81.76
2023-04-03T07:28:59.516Z,81.86
2023-04-03T07:29:59.536Z,80.53
2023-04-03T07:30:59.551Z,80.06
2023-04-03T07:31:59.653Z,80.15
2023-04-03T07:32:59.662Z,80.25
2023-04-03T07:33:59.612Z,80.25
2023-04-03T07:35:01.066Z,80.34
2023-04-03T07:35:59.707Z,79.96
2023-04-03T07:36:59.659Z,79.77
2023-04-03T07:37:59.677Z,79.15
2023-04-03T07:38:59.693Z,79.21
2023-04-03T07:39:59.710Z,78.87
2023-04-03T07:40:59.726Z,78.87
2023-04-03T07:41:59.746Z,78.49
2023-04-03T07:42:59.767Z,78.77
2023-04-03T07:43:59.781Z,78.67
2023-04-03T07:44:59.820Z,77.54
2023-04-03T07:45:59.842Z,77.45
2023-04-03T07:46:59.833Z,77.83
2023-04-03T07:47:59.887Z,77.16
2023-04-03T07:48:59.869Z,76.68
2023-04-03T07:49:59.887Z,76.97
2023-04-03T07:50:59.917Z,77.73
2023-04-03T07:51:59.921Z,77.54
2023-04-03T07:52:59.941Z,77.45
2023-04-03T07:53:59.957Z,77.73
2023-04-03T07:54:59.983Z,76.87
2023-04-03T07:56:00.017Z,76.21
2023-04-03T07:57:00.071Z,75.36
2023-04-03T07:58:00.048Z,75.26
2023-04-03T07:59:00.054Z,75.49
2023-04-03T08:00:00.066Z,74.64
2023-04-03T08:01:00.096Z,74.54
2023-04-03T08:02:00.138Z,74.54
2023-04-03T08:03:00.265Z,74.35
2023-04-03T08:04:00.307Z,74.69
2023-04-03T08:05:00.278Z,74.73
2023-04-03T08:06:00.185Z,74.07
2023-04-03T08:07:00.199Z,74.45
2023-04-03T08:08:00.206Z,73.60
2023-04-03T08:09:00.222Z,73.50
2023-04-03T08:10:00.258Z,72.74
2023-04-03T08:11:00.271Z,71.80
2023-04-03T08:12:00.277Z,71.32
2023-04-03T08:13:00.304Z,70.18
2023-04-03T08:14:00.319Z,70.28
2023-04-03T08:15:00.336Z,70.37
2023-04-03T08:16:00.348Z,71.32
2023-04-03T08:17:00.437Z,70.18
2023-04-03T08:18:00.495Z,69.71
2023-04-03T08:19:00.406Z,69.33
2023-04-03T08:20:00.424Z,68.95
2023-04-03T08:21:00.449Z,67.52
2023-04-03T08:22:00.475Z,66.96
2023-04-03T08:23:00.480Z,66.96
2023-04-03T08:24:00.504Z,66.39
2023-04-03T08:25:00.521Z,66.04
2023-04-03T08:26:00.533Z,65.95
2023-04-03T08:27:00.559Z,65.85
2023-04-03T08:28:00.581Z,65.28
2023-04-03T08:29:00.593Z,65.19
2023-04-03T08:30:00.628Z,63.86
2023-04-03T08:31:00.701Z,63.29
2023-04-03T08:32:00.647Z,63.20
2023-04-03T08:33:00.681Z,63.39
2023-04-03T08:34:00.679Z,62.72
2023-04-03T08:35:00.733Z,62.72
2023-04-03T08:36:00.735Z,62.62
2023-04-03T08:37:00.744Z,63.20
2023-04-03T08:38:00.757Z,62.62
2023-04-03T08:39:00.776Z,62.85
2023-04-03T08:40:00.794Z,62.37
2023-04-03T08:41:00.819Z,61.42
2023-04-03T08:42:00.835Z,60.92
2023-04-03T08:43:00.854Z,60.06
2023-04-03T08:44:00.877Z,60.63
2023-04-03T08:45:00.892Z,60.44
2023-04-03T08:46:00.985Z,60.06
2023-04-03T08:47:00.940Z,60.53
2023-04-03T08:48:00.976Z,60.35
2023-04-03T08:49:01.117Z,60.44
2023-04-03T08:50:00.979Z,60.35
2023-04-03T08:51:03.206Z,59.11
2023-04-03T08:52:01.019Z,59.30
2023-04-03T08:53:01.044Z,59.21
2023-04-03T08:54:01.156Z,59.11
2023-04-03T08:55:01.082Z,58.73
2023-04-03T08:56:01.096Z,59.68
2023-04-03T08:57:01.141Z,59.97
2023-04-03T08:58:01.142Z,59.59
2023-04-03T08:59:01.153Z,59.78
2023-04-03T09:00:01.172Z,59.68
2023-04-03T09:01:01.190Z,58.73
2023-04-03T09:02:01.337Z,59.21
2023-04-03T09:03:01.282Z,59.97
2023-04-03T09:04:01.310Z,59.68
2023-04-03T09:05:01.265Z,59.40
2023-04-03T09:06:01.285Z,59.21
2023-04-03T09:07:01.308Z,58.73
2023-04-03T09:08:01.321Z,59.30
2023-04-03T09:09:01.342Z,59.02
2023-04-03T09:10:01.455Z,59.21
2023-04-03T09:11:01.383Z,59.78
2023-04-03T09:12:01.401Z,59.40
2023-04-03T09:13:01.418Z,59.49
2023-04-03T09:14:01.459Z,59.40
2023-04-03T09:15:01.455Z,59.30
2023-04-03T09:16:01.486Z,59.40
2023-04-03T09:17:01.515Z,59.91
2023-04-03T09:18:01.560Z,59.52
2023-04-03T09:19:01.533Z,59.91
2023-04-03T09:20:01.546Z,59.52
2023-04-03T09:21:01.571Z,59.62
2023-04-03T09:22:01.585Z,59.81
2023-04-03T09:23:01.601Z,59.62
2023-04-03T09:24:01.622Z,59.91
2023-04-03T09:25:01.642Z,60.00
2023-04-03T09:26:01.781Z,60.57
2023-04-03T09:27:01.737Z,61.61
2023-04-03T09:28:01.700Z,61.14
2023-04-03T09:29:01.724Z,60.38
2023-04-03T09:30:01.743Z,60.00
2023-04-03T09:31:01.823Z,59.52
2023-04-03T09:32:01.782Z,59.05
2023-04-03T09:33:01.864Z,59.71
2023-04-03T09:34:01.811Z,59.52
2023-04-03T09:35:09.691Z,59.43
2023-04-03T09:36:01.874Z,59.43
2023-04-03T09:37:01.876Z,59.14
2023-04-03T09:38:01.888Z,58.76
2023-04-03T09:39:01.911Z,58.58
2023-04-03T09:40:01.929Z,59.62
2023-04-03T09:41:01.944Z,59.33
2023-04-03T09:42:02.067Z,59.91
2023-04-03T09:43:02.024Z,59.71
2023-04-03T09:44:02.009Z,59.33
2023-04-03T09:45:02.054Z,58.58
2023-04-03T09:46:02.054Z,57.43
2023-04-03T09:47:02.096Z,57.81
2023-04-03T09:48:02.103Z,57.91
2023-04-03T09:49:08.982Z,58.29
2023-04-03T09:50:02.118Z,58.13
2023-04-03T09:51:02.154Z,58.10
2023-04-03T09:52:02.160Z,57.94
2023-04-03T09:53:02.187Z,58.32
2023-04-03T09:54:02.195Z,57.91
2023-04-03T09:55:02.214Z,58.39
2023-04-03T09:56:02.230Z,59.33
2023-04-03T09:57:02.282Z,59.33
2023-04-03T09:58:02.380Z,59.74
2023-04-03T09:59:02.302Z,60.22
2023-04-03T10:00:02.325Z,59.74
2023-04-03T10:01:02.364Z,59.33
2023-04-03T10:02:02.346Z,59.27
2023-04-03T10:03:02.446Z,58.98
2023-04-03T10:04:02.393Z,58.98
2023-04-03T10:06:02.426Z,58.32
2023-04-03T10:07:02.453Z,58.32
2023-04-03T10:08:04.107Z,58.80
2023-04-03T10:09:02.487Z,58.70
2023-04-03T10:10:02.514Z,59.17
2023-04-03T10:11:02.521Z,59.36
2023-04-03T10:12:02.561Z,59.55
2023-04-03T10:13:02.562Z,59.46
2023-04-03T10:14:02.688Z,59.27
2023-04-03T10:15:02.598Z,59.27
2023-04-03T10:16:02.621Z,59.27
2023-04-03T10:17:02.657Z,59.27
2023-04-03T10:18:11.424Z,59.08
2023-04-03T10:19:02.676Z,58.61
2023-04-03T10:20:02.700Z,58.22
2023-04-03T10:21:02.728Z,57.37
2023-04-03T10:22:02.733Z,57.56
2023-04-03T10:23:02.768Z,57.18
2023-04-03T10:24:02.773Z,57.28
2023-04-03T10:25:02.796Z,57.94
2023-04-03T10:26:02.810Z,58.98
2023-04-03T10:27:02.832Z,58.80
2023-04-03T10:28:02.856Z,57.84
2023-04-03T10:29:02.867Z,57.18
2023-04-03T10:30:02.986Z,57.28
2023-04-03T10:31:02.994Z,57.56
2023-04-03T10:32:02.926Z,57.94
2023-04-03T10:33:03.006Z,59.17
2023-04-03T10:34:02.978Z,59.30
2023-04-03T10:35:05.307Z,59.68
2023-04-03T10:36:03.078Z,59.20
2023-04-03T10:37:03.033Z,58.54
2023-04-03T10:38:03.067Z,58.44
2023-04-03T10:39:03.077Z,57.97
2023-04-03T10:40:03.107Z,57.40
2023-04-03T10:41:03.107Z,57.87
2023-04-03T10:42:15.831Z,57.11
2023-04-03T10:43:03.145Z,57.50
2023-04-03T10:44:03.164Z,58.44
2023-04-03T10:45:03.190Z,58.35
2023-04-03T10:46:03.334Z,58.16
2023-04-03T10:47:03.239Z,58.06
2023-04-03T10:48:03.281Z,58.83
2023-04-03T10:49:03.277Z,59.58
2023-04-03T10:50:03.292Z,59.01
2023-04-03T10:51:03.307Z,59.77
2023-04-03T10:52:03.333Z,59.87
2023-04-03T10:53:03.348Z,59.77
2023-04-03T10:54:03.381Z,59.20
2023-04-03T10:55:03.389Z,59.87
2023-04-03T10:56:03.417Z,59.39
2023-04-03T10:57:11.604Z,59.27
2023-04-03T10:58:03.452Z,58.89
2023-04-03T10:59:03.470Z,59.46
2023-04-03T11:00:03.491Z,60.03
2023-04-03T11:01:03.579Z,59.93
2023-04-03T11:02:03.678Z,60.03
2023-04-03T11:03:03.620Z,59.46
2023-04-03T11:04:03.784Z,59.74
2023-04-03T11:05:03.601Z,60.22
2023-04-03T11:06:03.611Z,60.66
2023-04-03T11:07:03.633Z,60.69
2023-04-03T11:08:03.669Z,61.17
2023-04-03T11:09:03.668Z,60.69
2023-04-03T11:10:03.691Z,59.81
2023-04-03T11:11:03.710Z,59.46
2023-04-03T11:12:03.730Z,60.22
2023-04-03T11:13:03.754Z,60.60
2023-04-03T11:14:03.795Z,59.84
2023-04-03T11:15:03.789Z,60.22
2023-04-03T11:16:03.836Z,60.13
2023-04-03T11:17:03.826Z,59.36
2023-04-03T11:18:04.063Z,59.93
2023-04-03T11:19:03.866Z,59.36
2023-04-03T11:20:03.900Z,58.80
2023-04-03T11:21:03.908Z,59.58
2023-04-03T11:22:03.924Z,59.77
2023-04-03T11:23:03.958Z,59.58
2023-04-03T11:24:03.965Z,59.30
2023-04-03T11:25:03.983Z,58.73
2023-04-03T11:26:04.005Z,58.35
2023-04-03T11:27:04.025Z,58.73
2023-04-03T11:28:04.042Z,58.44
2023-04-03T11:29:04.065Z,58.44
2023-04-03T11:30:04.104Z,58.44
2023-04-03T11:31:04.166Z,58.06
2023-04-03T11:32:04.119Z,58.54
2023-04-03T11:33:04.179Z,58.54
2023-04-03T11:34:04.255Z,58.35
2023-04-03T11:35:04.209Z,58.37
2023-04-03T11:36:12.562Z,58.47
2023-04-03T11:37:04.222Z,58.47
2023-04-03T11:38:04.248Z,58.18
2023-04-03T11:39:04.272Z,57.33
2023-04-03T11:40:04.285Z,57.43
2023-04-03T11:41:04.301Z,56.92
2023-04-03T11:42:12.920Z,57.02
2023-04-03T11:43:04.342Z,57.50
2023-04-03T11:44:04.364Z,58.16
2023-04-03T11:45:04.383Z,58.63
2023-04-03T11:46:04.403Z,58.54
2023-04-03T11:47:04.537Z,58.35
2023-04-03T11:48:16.737Z,58.16
2023-04-03T11:49:04.468Z,58.76
2023-04-03T11:50:04.578Z,58.57
2023-04-03T11:51:04.502Z,58.57
2023-04-03T11:52:04.523Z,58.37
2023-04-03T11:53:04.552Z,58.12
2023-04-03T11:54:04.571Z,58.50
2023-04-03T11:55:04.586Z,57.84
2023-04-03T11:56:04.602Z,57.84
2023-04-03T11:57:04.656Z,57.36
2023-04-03T11:58:04.654Z,55.74
2023-04-03T11:59:04.665Z,56.10
2023-04-03T12:00:04.685Z,56.38
2023-04-03T12:01:04.724Z,56.76
2023-04-03T12:02:04.743Z,56.95
2023-04-03T12:03:04.829Z,57.40
2023-04-03T12:04:04.833Z,56.45
2023-04-03T12:05:04.790Z,56.54
2023-04-03T12:06:04.916Z,57.59
2023-04-03T12:07:04.830Z,57.87
2023-04-03T12:08:04.851Z,57.21
2023-04-03T12:09:04.868Z,57.50
2023-04-03T12:10:04.894Z,57.97
2023-04-03T12:11:04.926Z,58.63
2023-04-03T12:12:04.941Z,59.49
2023-04-03T12:13:04.961Z,59.23
2023-04-03T12:14:04.972Z,59.61
2023-04-03T12:15:04.993Z,59.61
2023-04-03T12:16:05.015Z,58.98
2023-04-03T12:17:05.121Z,57.65
2023-04-03T12:18:05.091Z,57.07
2023-04-03T12:19:05.189Z,57.36
2023-04-03T12:20:05.099Z,57.67
2023-04-03T12:21:05.116Z,57.77
2023-04-03T12:22:05.238Z,57.10
2023-04-03T12:23:06.264Z,56.44
2023-04-03T12:24:05.244Z,55.58
2023-04-03T12:25:05.204Z,54.63
2023-04-03T12:26:05.225Z,54.72
2023-04-03T12:27:05.252Z,54.13
2023-04-03T12:28:05.266Z,54.60
2023-04-03T12:29:05.289Z,55.36
2023-04-03T12:30:05.375Z,55.74
2023-04-03T12:31:05.358Z,55.65
2023-04-03T12:32:05.357Z,55.71
2023-04-03T12:33:12.746Z,56.48
2023-04-03T12:34:05.399Z,56.29
2023-04-03T12:35:05.436Z,56.00
2023-04-03T12:36:05.464Z,56.38
2023-04-03T12:37:05.466Z,56.76
2023-04-03T12:38:05.574Z,56.67
2023-04-03T12:39:05.505Z,57.81
2023-04-03T12:40:05.529Z,57.62
2023-04-03T12:41:05.546Z,57.33
2023-04-03T12:42:05.567Z,57.24
2023-04-03T12:43:05.595Z,57.52
2023-04-03T12:44:05.609Z,57.33
2023-04-03T12:45:05.624Z,57.52
2023-04-03T12:46:05.713Z,57.14
2023-04-03T12:47:05.714Z,57.14
2023-04-03T12:48:05.764Z,58.09
2023-04-03T12:49:05.713Z,58.47
2023-04-03T12:50:05.735Z,58.28
2023-04-03T12:51:05.759Z,58.85
2023-04-03T12:52:05.778Z,59.14
2023-04-03T12:53:05.797Z,58.18
2023-04-03T12:54:05.928Z,56.95